Time;durP1;ratioP1;P1;durP2;ratioP2;P2;SDS_P1;SDS_P2;PMS_P1;PMS_P2;Temp;Humidity;BMP_temperature;BMP_pressure;BME280_temperature;BME280_humidity;BME280_pressure;Samples;Min_cycle;Max_cycle;Signal;HPM_P1;HPM_P2
2022/04/14 00:01:02;;;;;;;34.80;27.92;;;13.20;99.90;;;;;;5094215;28;20213;-61
2022/04/14 00:03:27;;;;;;;32.13;26.90;;;13.30;99.90;;;;;;5093870;28;20027;-60
2022/04/14 00:05:53;;;;;;;34.40;27.23;;;13.20;99.90;;;;;;5094170;28;20039;-60
2022/04/14 00:08:18;;;;;;;31.23;26.23;;;13.20;99.90;;;;;;5094296;28;20077;-61
2022/04/14 00:10:44;;;;;;;30.70;26.10;;;13.20;99.90;;;;;;5093335;28;20483;-61
2022/04/14 00:13:09;;;;;;;32.97;26.80;;;13.10;99.90;;;;;;5094159;28;20020;-61
2022/04/14 00:15:35;;;;;;;34.20;27.00;;;13.10;99.90;;;;;;5093538;28;20048;-60
2022/04/14 00:18:01;;;;;;;37.58;27.73;;;13.10;99.90;;;;;;5075879;28;20068;-60
2022/04/14 00:20:26;;;;;;;35.92;27.00;;;13.20;99.90;;;;;;5093927;28;20016;-60
2022/04/14 00:25:24;;;;;;;32.70;25.70;;;13.10;99.90;;;;;;5113244;22;20059;-64
2022/04/14 00:27:49;;;;;;;37.38;25.50;;;13.00;99.90;;;;;;5093644;28;20028;-65
2022/04/14 00:30:15;;;;;;;33.58;24.80;;;13.00;99.90;;;;;;5094612;28;20021;-65
2022/04/14 00:32:40;;;;;;;30.75;24.35;;;13.00;99.90;;;;;;5095236;28;20027;-64
2022/04/14 00:35:06;;;;;;;32.80;25.25;;;13.00;99.90;;;;;;5092317;28;20012;-65
2022/04/14 00:37:32;;;;;;;30.48;24.88;;;12.90;99.90;;;;;;5092003;28;20032;-64
2022/04/14 00:39:58;;;;;;;31.48;23.58;;;12.90;99.90;;;;;;5091966;28;20095;-65
2022/04/14 00:42:23;;;;;;;34.53;23.88;;;12.90;99.90;;;;;;5092333;28;20073;-65
2022/04/14 00:44:49;;;;;;;31.70;23.80;;;12.80;99.90;;;;;;5091294;28;20441;-63
2022/04/14 00:47:15;;;;;;;30.70;24.25;;;12.80;99.90;;;;;;5091904;28;20063;-65
2022/04/14 00:49:41;;;;;;;40.22;24.20;;;12.80;99.90;;;;;;5093130;28;20031;-64
2022/04/14 00:52:07;;;;;;;31.48;23.45;;;12.80;99.90;;;;;;5074850;28;20024;-64
2022/04/14 00:54:33;;;;;;;29.73;22.88;;;12.80;99.90;;;;;;5093443;28;20027;-64
2022/04/14 00:56:59;;;;;;;30.67;23.17;;;12.80;99.90;;;;;;5073594;28;20028;-64
2022/04/14 00:59:25;;;;;;;30.52;22.38;;;12.80;99.90;;;;;;5091682;28;20024;-64
2022/04/14 01:01:51;;;;;;;29.67;23.13;;;12.80;99.90;;;;;;5073578;28;20024;-64
2022/04/14 01:04:18;;;;;;;33.85;23.42;;;12.80;99.90;;;;;;5091270;28;20209;-65
2022/04/14 01:06:47;;;;;;;28.80;22.70;;;12.80;99.90;;;;;;5093574;28;20476;-65
2022/04/14 01:09:21;;;;;;;30.27;23.58;;;12.70;99.90;;;;;;5090166;28;20400;-65
2022/04/14 01:11:51;;;;;;;27.80;22.77;;;12.70;99.90;;;;;;5095267;28;20056;-65
2022/04/14 01:14:36;;;;;;;32.45;22.55;;;12.70;99.90;;;;;;5077634;28;20109;-66
2022/04/14 01:17:05;;;;;;;29.98;23.30;;;12.60;99.90;;;;;;5096521;28;20052;-66
2022/04/14 01:19:31;;;;;;;31.65;22.83;;;12.60;99.90;;;;;;5096485;28;20042;-66
2022/04/14 01:21:56;;;;;;;28.50;22.33;;;12.60;99.90;;;;;;5079358;28;20024;-66
2022/04/14 01:24:22;;;;;;;28.60;22.27;;;12.60;99.90;;;;;;5096484;28;20071;-66
2022/04/14 01:26:48;;;;;;;31.52;22.27;;;12.60;99.90;;;;;;5100348;28;20051;-64
2022/04/14 01:29:24;;;;;;;25.42;21.90;;;12.60;99.90;;;;;;5095926;28;20028;-64
2022/04/14 01:31:51;;;;;;;29.40;22.05;;;12.50;99.90;;;;;;5095150;28;20028;-65
2022/04/14 01:34:16;;;;;;;25.83;21.95;;;12.60;99.90;;;;;;5093726;28;20031;-65
2022/04/14 01:36:42;;;;;;;24.85;20.35;;;12.60;99.90;;;;;;5093915;28;20028;-65
2022/04/14 01:39:10;;;;;;;29.20;21.15;;;12.50;99.90;;;;;;5094252;28;20079;-65
2022/04/14 01:41:37;;;;;;;26.92;21.30;;;12.50;99.90;;;;;;5092450;28;20584;-64
2022/04/14 01:44:03;;;;;;;27.17;21.60;;;12.50;99.90;;;;;;5073684;28;20028;-61
2022/04/14 01:46:28;;;;;;;26.15;21.73;;;12.50;99.90;;;;;;5092280;28;20073;-65
2022/04/14 01:48:54;;;;;;;27.77;21.08;;;12.50;99.90;;;;;;5092086;28;20024;-66
2022/04/14 01:51:20;;;;;;;27.08;20.35;;;12.50;99.90;;;;;;5092087;28;20031;-65
2022/04/14 01:53:46;;;;;;;29.90;21.27;;;12.40;99.90;;;;;;5091722;28;20549;-65
2022/04/14 01:56:11;;;;;;;29.77;21.73;;;12.50;99.90;;;;;;5091239;28;20118;-65
2022/04/14 01:58:37;;;;;;;29.05;22.73;;;12.50;99.90;;;;;;5091629;28;20024;-64
2022/04/14 02:01:02;;;;;;;29.00;21.88;;;12.50;99.90;;;;;;5090128;28;20024;-63
2022/04/14 02:03:28;;;;;;;29.25;22.05;;;12.40;99.90;;;;;;5095336;28;20035;-65
2022/04/14 02:05:54;;;;;;;28.08;21.23;;;12.40;99.90;;;;;;5097257;28;20032;-65
2022/04/14 02:08:19;;;;;;;29.20;21.13;;;12.40;99.90;;;;;;5099659;28;20561;-67
2022/04/14 02:10:45;;;;;;;27.27;21.40;;;12.40;99.90;;;;;;5097335;28;20105;-66
2022/04/14 02:13:10;;;;;;;30.92;22.17;;;12.40;99.90;;;;;;5096789;28;20024;-66
2022/04/14 02:15:36;;;;;;;30.48;22.02;;;12.40;99.90;;;;;;5095106;28;20027;-66
2022/04/14 02:18:02;;;;;;;29.30;21.85;;;12.30;99.90;;;;;;5095195;28;20097;-66
2022/04/14 02:20:27;;;;;;;30.38;22.08;;;12.30;99.90;;;;;;5094430;28;20114;-68
2022/04/14 02:22:53;;;;;;;27.98;21.40;;;12.40;99.90;;;;;;5093819;28;20059;-66
2022/04/14 02:25:19;;;;;;;27.65;21.58;;;12.40;99.90;;;;;;5094091;28;20126;-66
2022/04/14 02:27:44;;;;;;;29.50;21.60;;;12.30;99.90;;;;;;5094491;28;20081;-66
2022/04/14 02:30:10;;;;;;;29.08;21.27;;;12.30;99.90;;;;;;5094140;28;20026;-67
2022/04/14 02:32:36;;;;;;;28.30;21.52;;;12.30;99.90;;;;;;5094560;28;20027;-67
2022/04/14 02:35:04;;;;;;;30.30;21.33;;;12.20;99.90;;;;;;5094010;28;20028;-65
2022/04/14 02:37:30;;;;;;;29.17;21.00;;;12.20;99.90;;;;;;5093315;28;20027;-65
2022/04/14 02:39:55;;;;;;;28.50;20.88;;;12.20;99.90;;;;;;5075829;28;20028;-65
2022/04/14 02:42:21;;;;;;;33.25;23.98;;;12.10;99.90;;;;;;5094263;28;20031;-66
2022/04/14 02:44:46;;;;;;;29.13;20.92;;;12.10;99.90;;;;;;5093572;28;20101;-67
2022/04/14 02:47:12;;;;;;;29.10;22.00;;;12.10;99.90;;;;;;5094130;28;20035;-67
2022/04/14 02:49:38;;;;;;;29.15;22.63;;;12.10;99.90;;;;;;5092501;28;20022;-67
2022/04/14 02:52:04;;;;;;;30.02;22.95;;;12.10;99.90;;;;;;5093333;28;20177;-66
2022/04/14 02:54:29;;;;;;;31.83;23.17;;;12.10;99.90;;;;;;5093548;28;20016;-67
2022/04/14 02:56:55;;;;;;;30.27;22.95;;;12.20;99.90;;;;;;5094103;28;20024;-66
2022/04/14 02:59:20;;;;;;;31.30;22.60;;;12.20;99.90;;;;;;5093653;28;20543;-66
2022/04/14 03:01:46;;;;;;;30.65;22.85;;;12.10;99.90;;;;;;5092722;28;20111;-67
2022/04/14 03:04:11;;;;;;;30.77;24.00;;;12.10;99.90;;;;;;5093535;28;20036;-67
2022/04/14 03:06:37;;;;;;;31.70;23.50;;;12.10;99.90;;;;;;5075801;28;20119;-66
2022/04/14 03:09:02;;;;;;;33.40;24.27;;;12.00;99.90;;;;;;5093531;28;20019;-66
2022/04/14 03:11:28;;;;;;;30.85;23.88;;;12.00;99.90;;;;;;5075606;28;20046;-66
2022/04/14 03:13:54;;;;;;;34.25;23.75;;;12.00;99.90;;;;;;5093453;28;20059;-68
2022/04/14 03:16:19;;;;;;;31.00;23.50;;;12.00;99.90;;;;;;5093040;28;20085;-67
2022/04/14 03:18:45;;;;;;;33.45;23.55;;;12.00;99.90;;;;;;5092777;28;20024;-67
2022/04/14 03:21:13;;;;;;;32.60;22.67;;;12.00;99.90;;;;;;5093538;28;20111;-67
2022/04/14 03:23:39;;;;;;;29.58;21.90;;;12.00;99.90;;;;;;5092115;28;20024;-66
2022/04/14 03:26:08;;;;;;;33.90;22.63;;;12.00;99.90;;;;;;5075112;28;20035;-65
2022/04/14 03:28:34;;;;;;;31.83;23.95;;;11.90;99.90;;;;;;5075181;28;20107;-66
2022/04/14 03:30:59;;;;;;;33.10;24.65;;;11.90;99.90;;;;;;5092858;28;20020;-66
2022/04/14 03:33:25;;;;;;;32.45;22.73;;;11.90;99.90;;;;;;5093049;28;20019;-67
2022/04/14 03:35:51;;;;;;;35.78;25.67;;;11.80;99.90;;;;;;5092816;28;20017;-68
2022/04/14 03:38:16;;;;;;;34.88;24.17;;;11.90;99.90;;;;;;5093599;28;20109;-66
2022/04/14 03:40:42;;;;;;;35.78;25.75;;;11.90;99.90;;;;;;5092230;28;20095;-66
2022/04/14 03:43:07;;;;;;;34.47;25.70;;;11.90;99.90;;;;;;5074903;28;20056;-67
2022/04/14 03:45:33;;;;;;;34.80;24.83;;;11.80;99.90;;;;;;5093102;28;20023;-65
2022/04/14 03:47:58;;;;;;;34.90;23.90;;;11.80;99.90;;;;;;5093077;28;20087;-66
2022/04/14 03:50:24;;;;;;;36.67;23.70;;;11.80;99.90;;;;;;5073464;28;20430;-67
2022/04/14 03:52:50;;;;;;;35.38;25.08;;;11.80;99.90;;;;;;5092981;28;20099;-66
2022/04/14 03:55:15;;;;;;;35.13;23.60;;;11.70;99.90;;;;;;5092416;28;20484;-65
2022/04/14 03:57:41;;;;;;;36.60;25.05;;;11.70;99.90;;;;;;5074710;28;20070;-64
2022/04/14 04:00:07;;;;;;;35.38;25.25;;;11.70;99.90;;;;;;5092712;28;20043;-65
2022/04/14 04:02:35;;;;;;;34.03;26.38;;;11.70;99.90;;;;;;5092503;28;20114;-66
2022/04/14 04:05:01;;;;;;;38.47;25.63;;;11.70;99.90;;;;;;5092363;28;20019;-64
2022/04/14 04:07:26;;;;;;;33.58;25.17;;;11.70;99.90;;;;;;5092545;28;20431;-65
2022/04/14 04:09:52;;;;;;;35.50;24.83;;;11.70;99.90;;;;;;5092239;28;20028;-63
2022/04/14 04:12:19;;;;;;;32.22;24.75;;;11.60;99.90;;;;;;5074439;28;20028;-66
2022/04/14 04:14:45;;;;;;;35.75;25.08;;;11.60;99.90;;;;;;5073975;28;20144;-67
2022/04/14 04:17:10;;;;;;;37.40;27.42;;;11.60;99.90;;;;;;5092535;28;20084;-68
2022/04/14 04:19:38;;;;;;;32.95;24.80;;;11.60;99.90;;;;;;5092187;28;20528;-66
2022/04/14 04:22:05;;;;;;;37.03;25.27;;;11.60;99.90;;;;;;5092293;28;20020;-66
2022/04/14 04:24:31;;;;;;;34.78;24.98;;;11.60;99.90;;;;;;5091831;28;20043;-66
2022/04/14 04:26:56;;;;;;;37.67;26.40;;;11.60;99.90;;;;;;5092233;28;20115;-67
2022/04/14 04:29:22;;;;;;;41.67;27.02;;;11.60;99.90;;;;;;5091386;28;20036;-67
2022/04/14 04:31:47;;;;;;;36.55;25.92;;;11.50;99.90;;;;;;5092271;28;20056;-68
2022/04/14 04:34:13;;;;;;;34.33;26.95;;;11.40;99.90;;;;;;5091494;28;20020;-67
2022/04/14 04:36:39;;;;;;;39.50;27.75;;;11.50;99.90;;;;;;5092136;28;20020;-66
2022/04/14 04:39:04;;;;;;;39.80;28.08;;;11.50;99.90;;;;;;5091403;28;20408;-67
2022/04/14 04:41:31;;;;;;;38.35;27.83;;;11.50;99.90;;;;;;5092127;28;20043;-67
2022/04/14 04:43:56;;;;;;;41.80;28.20;;;11.50;99.90;;;;;;5091663;28;20027;-65
2022/04/14 04:46:22;;;;;;;38.08;27.40;;;11.50;99.90;;;;;;5091772;28;20028;-66
2022/04/14 04:48:48;;;;;;;41.88;28.50;;;11.50;99.90;;;;;;5073166;28;20419;-66
2022/04/14 04:51:13;;;;;;;39.25;28.05;;;11.50;99.90;;;;;;5091701;28;20020;-67
2022/04/14 04:53:39;;;;;;;39.72;28.92;;;11.50;99.90;;;;;;5091385;28;20024;-66
2022/04/14 04:56:05;;;;;;;37.20;25.90;;;11.50;99.90;;;;;;5091414;28;20100;-67
2022/04/14 04:58:30;;;;;;;37.20;25.63;;;11.50;99.90;;;;;;5091490;28;20024;-66
2022/04/14 05:00:56;;;;;;;40.65;26.85;;;11.50;99.90;;;;;;5073147;28;20027;-67
2022/04/14 05:03:22;;;;;;;40.83;27.77;;;11.50;99.90;;;;;;5091981;28;20027;-66
2022/04/14 05:05:48;;;;;;;38.28;26.52;;;11.50;99.90;;;;;;5091132;28;20043;-65
2022/04/14 05:08:14;;;;;;;40.40;26.65;;;11.50;99.90;;;;;;5091423;28;20097;-66
2022/04/14 05:10:39;;;;;;;39.88;26.58;;;11.50;99.90;;;;;;5090920;28;20020;-66
2022/04/14 05:13:05;;;;;;;39.67;27.15;;;11.60;99.90;;;;;;5073073;28;20034;-67
2022/04/14 05:15:31;;;;;;;46.03;28.52;;;11.60;99.90;;;;;;5091174;28;20031;-65
2022/04/14 05:17:56;;;;;;;40.15;26.33;;;11.60;99.90;;;;;;5091296;28;20491;-66
2022/04/14 05:20:22;;;;;;;39.47;26.95;;;11.60;99.90;;;;;;5090737;28;20055;-66
2022/04/14 05:22:48;;;;;;;41.42;27.58;;;11.60;99.90;;;;;;5091370;28;20016;-66
2022/04/14 05:25:14;;;;;;;37.50;26.92;;;11.60;99.90;;;;;;5090722;28;20103;-66
2022/04/14 05:27:42;;;;;;;42.47;27.50;;;11.70;99.90;;;;;;5091223;28;20107;-66
2022/04/14 05:30:08;;;;;;;39.70;27.58;;;11.60;99.90;;;;;;5090788;28;20031;-66
2022/04/14 05:32:33;;;;;;;38.97;25.85;;;11.60;99.90;;;;;;5091508;28;20020;-66
2022/04/14 05:34:59;;;;;;;40.42;26.45;;;11.60;99.90;;;;;;5090604;28;20476;-67
2022/04/14 05:37:25;;;;;;;45.00;28.88;;;11.70;99.90;;;;;;5090733;28;20028;-67
2022/04/14 05:39:51;;;;;;;47.20;29.60;;;11.60;99.90;;;;;;5090050;28;20106;-64
2022/04/14 05:42:16;;;;;;;40.78;26.83;;;11.70;99.90;;;;;;5072652;28;20024;-68
2022/04/14 05:44:42;;;;;;;40.80;27.10;;;11.70;99.90;;;;;;5072563;28;20064;-65
2022/04/14 05:47:07;;;;;;;43.55;30.25;;;11.70;99.90;;;;;;5072921;28;20020;-65
2022/04/14 05:49:33;;;;;;;50.35;29.77;;;11.70;99.90;;;;;;5090335;28;20028;-67
2022/04/14 05:51:59;;;;;;;50.00;29.65;;;11.80;99.90;;;;;;5090992;28;20119;-67
2022/04/14 05:54:24;;;;;;;60.78;34.50;;;11.80;99.90;;;;;;5090565;28;20515;-66
2022/04/14 05:56:50;;;;;;;66.57;35.72;;;11.90;99.90;;;;;;5091371;28;20122;-67
2022/04/14 05:59:16;;;;;;;63.58;38.17;;;12.00;99.90;;;;;;5090447;28;20213;-66
2022/04/14 06:01:46;;;;;;;62.08;36.88;;;12.10;99.90;;;;;;5090946;28;20032;-64
2022/04/14 06:04:12;;;;;;;61.05;35.60;;;12.10;99.90;;;;;;5072086;28;20037;-66
2022/04/14 06:06:38;;;;;;;63.80;36.78;;;12.10;99.90;;;;;;5090497;28;20024;-66
2022/04/14 06:09:04;;;;;;;71.45;40.90;;;12.20;99.90;;;;;;5072284;28;20031;-64
2022/04/14 06:11:30;;;;;;;70.93;40.25;;;12.10;99.90;;;;;;5072569;28;20016;-64
2022/04/14 06:13:56;;;;;;;73.32;39.42;;;12.20;99.90;;;;;;5090231;28;20016;-65
2022/04/14 06:16:21;;;;;;;75.60;41.97;;;12.20;99.90;;;;;;5072655;28;20036;-65
2022/04/14 06:18:47;;;;;;;80.35;43.55;;;12.20;99.90;;;;;;5072147;28;20580;-63
2022/04/14 06:21:13;;;;;;;73.38;41.83;;;12.20;99.90;;;;;;5090184;28;20021;-65
2022/04/14 06:26:10;;;;;;;94.25;46.97;;;12.30;99.90;;;;;;5046339;28;20049;-60
2022/04/14 06:28:36;;;;;;;94.93;47.00;;;12.30;99.90;;;;;;5051110;28;20538;-61
2022/04/14 06:31:02;;;;;;;89.82;45.58;;;12.30;99.90;;;;;;5051194;28;20017;-61
2022/04/14 06:33:30;;;;;;;88.07;47.60;;;12.30;99.90;;;;;;5051063;28;20021;-61
2022/04/14 06:35:57;;;;;;;93.13;44.80;;;12.30;99.90;;;;;;5069478;28;20040;-59
2022/04/14 06:38:25;;;;;;;97.38;46.95;;;12.30;99.90;;;;;;5071559;28;20025;-62
2022/04/14 06:40:51;;;;;;;91.78;46.75;;;12.30;99.90;;;;;;5069548;28;20029;-62
2022/04/14 06:43:16;;;;;;;88.50;47.08;;;12.40;99.90;;;;;;5071611;28;20163;-61
2022/04/14 06:45:42;;;;;;;94.55;46.28;;;12.40;99.90;;;;;;5070837;28;20477;-60
2022/04/14 06:48:09;;;;;;;93.95;46.58;;;12.50;99.90;;;;;;5069557;28;20024;-60
2022/04/14 06:50:35;;;;;;;82.00;42.58;;;12.50;99.90;;;;;;5069035;28;20222;-61
2022/04/14 06:53:00;;;;;;;79.72;43.53;;;12.60;99.90;;;;;;5074728;28;20491;-61
2022/04/14 06:55:26;;;;;;;76.47;44.78;;;12.70;99.90;;;;;;5072650;28;20433;-60
2022/04/14 06:57:52;;;;;;;77.95;43.30;;;12.80;99.90;;;;;;5074689;28;20048;-62
2022/04/14 07:00:19;;;;;;;74.53;43.80;;;12.80;99.90;;;;;;5075074;28;20052;-62
2022/04/14 07:02:46;;;;;;;82.25;42.63;;;12.90;99.90;;;;;;5074962;28;20027;-62
2022/04/14 07:05:12;;;;;;;77.88;41.88;;;12.90;99.90;;;;;;5074272;28;20041;-62
2022/04/14 07:07:37;;;;;;;78.57;42.15;;;12.90;99.90;;;;;;5073203;28;20054;-62
2022/04/14 07:10:03;;;;;;;73.82;41.58;;;13.10;99.90;;;;;;5074231;28;20044;-62
2022/04/14 07:12:29;;;;;;;70.60;39.05;;;13.30;99.90;;;;;;5074641;28;20074;-61
2022/04/14 07:14:54;;;;;;;77.05;40.75;;;13.40;99.90;;;;;;5073994;28;20180;-62
2022/04/14 07:17:22;;;;;;;72.32;40.92;;;13.30;99.90;;;;;;5073054;28;20124;-62
2022/04/14 07:19:47;;;;;;;69.60;40.13;;;13.50;99.90;;;;;;5073984;28;20469;-62
2022/04/14 07:22:17;;;;;;;71.45;38.33;;;13.50;99.90;;;;;;5074403;28;20089;-62
2022/04/14 07:24:43;;;;;;;76.30;40.65;;;13.60;99.90;;;;;;5081879;28;20028;-62
2022/04/14 07:27:10;;;;;;;73.47;38.13;;;13.50;99.90;;;;;;5076471;28;20031;-62
2022/04/14 07:29:36;;;;;;;71.95;39.08;;;13.60;99.90;;;;;;5093974;28;20133;-62
2022/04/14 07:32:01;;;;;;;70.10;39.08;;;13.50;99.90;;;;;;5094423;28;20498;-62
2022/04/14 07:34:27;;;;;;;63.28;37.35;;;13.50;99.90;;;;;;5075969;28;20028;-61
2022/04/14 07:36:52;;;;;;;67.72;37.55;;;13.60;99.90;;;;;;5076193;28;20392;-61
2022/04/14 07:39:18;;;;;;;70.72;40.53;;;13.50;99.90;;;;;;5075498;28;20030;-60
2022/04/14 07:41:44;;;;;;;61.92;36.65;;;13.50;99.90;;;;;;5093902;28;20032;-62
2022/04/14 07:44:09;;;;;;;72.05;40.40;;;13.40;99.90;;;;;;5093994;28;20196;-60
2022/04/14 07:46:38;;;;;;;70.55;39.20;;;13.30;99.90;;;;;;5094085;28;20036;-61
2022/04/14 07:49:05;;;;;;;67.78;39.75;;;13.30;99.90;;;;;;5093502;28;20472;-61
2022/04/14 07:51:30;;;;;;;74.65;40.28;;;13.20;99.90;;;;;;5093548;28;20040;-62
2022/04/14 07:53:56;;;;;;;69.97;40.22;;;13.00;99.90;;;;;;5094239;28;20032;-61
2022/04/14 07:56:22;;;;;;;70.20;38.97;;;12.90;99.90;;;;;;5094297;28;20523;-61
2022/04/14 07:58:49;;;;;;;85.00;42.08;;;12.70;99.90;;;;;;5078376;28;20039;-61
2022/04/14 08:01:16;;;;;;;72.38;39.67;;;12.60;99.90;;;;;;5103152;28;20103;-59
2022/04/14 08:03:42;;;;;;;73.68;42.13;;;12.60;99.90;;;;;;5097459;28;20140;-59
2022/04/14 08:06:08;;;;;;;75.10;40.83;;;12.60;99.90;;;;;;5075522;28;20492;-62
2022/04/14 08:08:34;;;;;;;76.55;42.03;;;12.50;99.90;;;;;;5094100;28;20024;-61
2022/04/14 08:11:03;;;;;;;82.70;41.42;;;12.50;99.90;;;;;;5093695;28;20026;-60
2022/04/14 08:13:30;;;;;;;76.88;43.25;;;12.50;99.90;;;;;;5094330;28;20066;-59
2022/04/14 08:16:01;;;;;;;81.05;43.15;;;12.50;99.90;;;;;;5075538;28;20028;-61
2022/04/14 08:18:27;;;;;;;77.97;41.33;;;12.70;99.90;;;;;;5076244;28;20020;-59
2022/04/14 08:20:52;;;;;;;81.07;44.03;;;12.90;99.90;;;;;;5093701;28;20095;-55
2022/04/14 08:23:18;;;;;;;80.47;41.20;;;13.00;99.90;;;;;;5076171;28;20020;-66
2022/04/14 08:25:44;;;;;;;72.90;43.17;;;13.20;99.90;;;;;;5093443;28;20032;-65
2022/04/14 08:28:09;;;;;;;69.35;37.67;;;13.30;99.90;;;;;;5093898;28;20050;-64
2022/04/14 08:30:36;;;;;;;73.28;40.15;;;13.50;99.90;;;;;;5075396;28;20031;-64
2022/04/14 08:33:10;;;;;;;70.10;39.30;;;13.60;99.90;;;;;;5075798;28;20016;-65
2022/04/14 08:35:36;;;;;;;67.55;37.40;;;13.70;99.90;;;;;;5093639;28;20519;-65
2022/04/14 08:38:04;;;;;;;62.40;37.13;;;13.80;99.90;;;;;;5075777;28;20024;-64
2022/04/14 08:40:35;;;;;;;63.53;39.23;;;14.00;99.90;;;;;;5075681;28;20030;-65
2022/04/14 08:43:02;;;;;;;58.38;36.40;;;14.00;99.90;;;;;;5075122;28;20052;-66
2022/04/14 08:45:33;;;;;;;63.30;36.37;;;14.10;99.90;;;;;;5093248;28;20028;-66
2022/04/14 08:48:00;;;;;;;63.13;37.67;;;14.20;99.90;;;;;;5075573;28;20418;-66
2022/04/14 08:50:27;;;;;;;63.22;38.13;;;14.30;99.90;;;;;;5074711;28;20024;-65
2022/04/14 08:52:53;;;;;;;64.60;39.10;;;14.40;99.90;;;;;;5093533;28;20022;-66
2022/04/14 08:55:18;;;;;;;59.53;35.28;;;14.60;99.90;;;;;;5074119;28;20024;-66
2022/04/14 08:57:44;;;;;;;53.38;35.28;;;14.60;99.90;;;;;;4734090;28;10000711;-66
2022/04/14 09:00:12;;;;;;;55.88;34.13;;;14.60;99.90;;;;;;5076898;28;20063;-66
2022/04/14 09:02:39;;;;;;;55.00;31.88;;;14.50;99.90;;;;;;5091555;28;20629;-67
2022/04/14 09:05:06;;;;;;;58.13;36.25;;;14.70;99.90;;;;;;5084819;28;20048;-70
2022/04/14 09:07:31;;;;;;;53.67;31.85;;;14.70;99.90;;;;;;5070138;28;20032;-67
2022/04/14 09:09:57;;;;;;;56.78;33.90;;;14.90;99.90;;;;;;5069956;28;20051;-65
2022/04/14 09:12:23;;;;;;;49.30;30.67;;;15.10;99.90;;;;;;5070888;28;20080;-65
2022/04/14 09:14:49;;;;;;;54.03;30.88;;;15.20;99.90;;;;;;5067801;28;20046;-65
2022/04/14 09:17:15;;;;;;;49.47;29.30;;;15.30;99.90;;;;;;5091271;28;20051;-66
2022/04/14 09:19:44;;;;;;;49.45;30.15;;;15.50;99.90;;;;;;5071944;28;20062;-66
2022/04/14 09:22:13;;;;;;;50.65;31.98;;;15.50;99.90;;;;;;5090476;28;20461;-67
2022/04/14 09:24:48;;;;;;;50.00;29.60;;;15.60;99.90;;;;;;5090154;28;20046;-66
2022/04/14 09:27:33;;;;;;;48.63;30.10;;;;;;;;;;5090354;28;20031;-66
2022/04/14 09:30:00;;;;;;;50.00;29.20;;;;;;;;;;5089877;28;20050;-64
2022/04/14 09:32:27;;;;;;;44.40;28.08;;;;;;;;;;5051417;28;20460;-66
2022/04/14 09:34:54;;;;;;;41.88;26.30;;;;;;;;;;5070011;28;20473;-66
2022/04/14 09:37:21;;;;;;;37.90;23.55;;;;;;;;;;5070281;28;20476;-67
2022/04/14 09:40:02;;;;;;;42.92;27.25;;;;;;;;;;5069694;28;20020;-67
2022/04/14 09:42:32;;;;;;;42.40;25.33;;;;;;;;;;5069920;28;20021;-67
2022/04/14 09:45:20;;;;;;;44.90;26.80;;;;;;;;;;5069345;28;20017;-67
2022/04/14 09:47:46;;;;;;;37.78;24.35;;;;;;;;;;5070113;28;20139;-67
2022/04/14 09:50:32;;;;;;;35.58;23.48;;;;;;;;;;5049741;28;20025;-68
2022/04/14 09:53:20;;;;;;;37.83;24.50;;;;;;;;;;5069821;28;20021;-68
2022/04/14 09:55:52;;;;;;;39.33;23.83;;;;;;;;;;5070830;28;20394;-68
2022/04/14 09:58:19;;;;;;;38.78;25.25;;;;;;;;;;5071986;28;20134;-67
2022/04/14 10:00:49;;;;;;;37.83;24.60;;;;;;;;;;5071224;28;20028;-66
2022/04/14 10:03:24;;;;;;;34.65;22.00;;;;;;;;;;5090082;28;20032;-65
2022/04/14 10:05:51;;;;;;;36.30;23.83;;;;;;;;;;5090201;28;20024;-66
2022/04/14 10:08:18;;;;;;;35.63;23.85;;;15.90;99.90;;;;;;5089657;28;20028;-67
2022/04/14 10:10:47;;;;;;;38.55;24.25;;;16.90;99.90;;;;;;5089731;28;20020;-66
2022/04/14 10:13:18;;;;;;;37.22;22.52;;;17.00;99.90;;;;;;5090343;28;20039;-66
2022/04/14 10:15:45;;;;;;;33.80;21.95;;;16.80;99.90;;;;;;5089819;28;20024;-68
2022/04/14 10:18:16;;;;;;;34.53;21.30;;;16.80;99.90;;;;;;5090223;28;20035;-68
2022/04/14 10:20:44;;;;;;;37.40;23.02;;;17.10;99.90;;;;;;5071218;28;20020;-66
2022/04/14 10:23:11;;;;;;;35.97;22.08;;;17.10;99.90;;;;;;5090263;28;20036;-66
2022/04/14 10:25:37;;;;;;;36.45;20.85;;;17.00;99.90;;;;;;5087848;28;20028;-67
2022/04/14 10:28:06;;;;;;;32.92;19.40;;;17.10;99.90;;;;;;5075324;28;20024;-67
2022/04/14 10:30:32;;;;;;;37.00;22.20;;;17.30;99.90;;;;;;5093955;28;20016;-67
2022/04/14 10:32:58;;;;;;;30.42;17.02;;;17.30;99.90;;;;;;5093436;28;20063;-67
2022/04/14 10:35:26;;;;;;;32.00;17.40;;;17.30;99.90;;;;;;5093497;28;20048;-67
2022/04/14 10:38:17;;;;;;;31.05;19.38;;;17.30;99.90;;;;;;5093219;28;20099;-67
2022/04/14 10:40:51;;;;;;;29.88;17.33;;;17.50;99.90;;;;;;5093296;28;20043;-66
2022/04/14 10:43:19;;;;;;;26.70;16.50;;;17.30;99.90;;;;;;5093644;28;20070;-66
2022/04/14 10:45:54;;;;;;;32.72;17.75;;;17.20;99.90;;;;;;5074999;28;20024;-66
2022/04/14 10:48:34;;;;;;;27.80;16.58;;;17.00;99.90;;;;;;5093774;28;20034;-67
2022/04/14 10:51:19;;;;;;;33.55;18.52;;;17.20;99.90;;;;;;5092855;28;20044;-66
2022/04/14 10:54:03;;;;;;;28.35;16.65;;;17.20;99.90;;;;;;5093129;28;20079;-67
2022/04/14 10:56:41;;;;;;;29.38;18.05;;;17.30;99.90;;;;;;5074996;28;20032;-67
2022/04/14 10:59:25;;;;;;;30.17;18.33;;;17.60;99.90;;;;;;5092522;28;20028;-67
2022/04/14 11:01:52;;;;;;;29.85;19.40;;;17.80;99.90;;;;;;5093560;28;20511;-66
2022/04/14 11:04:26;;;;;;;27.40;17.77;;;18.00;99.90;;;;;;5093032;28;20028;-66
2022/04/14 11:06:54;;;;;;;31.23;18.00;;;18.30;99.90;;;;;;5093470;28;20036;-67
2022/04/14 11:09:38;;;;;;;32.30;20.17;;;18.50;99.90;;;;;;5092684;28;20032;-66
2022/04/14 11:12:08;;;;;;;28.80;18.38;;;18.20;99.90;;;;;;5093472;28;20082;-67
2022/04/14 11:14:48;;;;;;;26.65;17.48;;;18.10;99.90;;;;;;5093024;28;20070;-67
2022/04/14 11:17:36;;;;;;;27.20;17.50;;;18.50;99.90;;;;;;5093188;28;20111;-66
2022/04/14 11:20:22;;;;;;;24.85;15.60;;;19.70;99.90;;;;;;5092007;28;20024;-66
2022/04/14 11:23:07;;;;;;;27.00;17.45;;;20.60;99.90;;;;;;5092808;28;20020;-65
2022/04/14 11:25:39;;;;;;;30.48;18.63;;;20.60;99.90;;;;;;5092229;28;20519;-66
2022/04/14 11:28:27;;;;;;;27.20;18.52;;;21.00;99.90;;;;;;5092500;28;20024;-68
2022/04/14 11:30:58;;;;;;;26.33;18.17;;;22.00;99.90;;;;;;5092285;28;20418;-66
2022/04/14 11:33:25;;;;;;;23.92;14.88;;;22.50;99.90;;;;;;5092717;28;20077;-68
2022/04/14 11:35:51;;;;;;;24.38;16.92;;;22.80;99.90;;;;;;5091857;28;20418;-67
2022/04/14 11:38:57;;;;;;;24.48;17.33;;;23.40;99.40;;;;;;5091793;28;20028;-68
2022/04/14 11:41:53;;;;;;;24.50;17.05;;;22.70;98.30;;;;;;5092429;28;20032;-66
2022/04/14 11:44:30;;;;;;;26.50;17.85;;;22.00;99.10;;;;;;5091815;28;20032;-66
2022/04/14 11:46:59;;;;;;;22.87;16.03;;;22.80;99.30;;;;;;5092730;28;20035;-67
2022/04/14 11:49:30;;;;;;;22.88;15.80;;;23.30;97.40;;;;;;5074020;28;20567;-66
2022/04/14 11:51:57;;;;;;;27.48;16.02;;;22.70;97.50;;;;;;5092523;28;20618;-65
2022/04/14 11:54:29;;;;;;;21.73;14.10;;;22.80;97.20;;;;;;5075234;28;20027;-64
2022/04/14 11:57:31;;;;;;;24.48;14.95;;;21.90;97.00;;;;;;5094845;28;20425;-64
2022/04/14 12:00:09;;;;;;;21.10;13.48;;;;;;;;;;5089812;28;20376;-64
2022/04/14 12:02:35;;;;;;;25.08;14.52;;;20.80;98.10;;;;;;5094378;28;20020;-66
2022/04/14 12:05:01;;;;;;;20.70;12.88;;;19.50;99.90;;;;;;5093848;28;20100;-66
2022/04/14 12:07:32;;;;;;;23.35;14.10;;;20.10;99.90;;;;;;5094356;28;20120;-65
2022/04/14 12:10:02;;;;;;;21.40;14.43;;;19.80;99.90;;;;;;5093892;28;20020;-65
2022/04/14 12:12:34;;;;;;;20.88;14.23;;;19.70;99.90;;;;;;5094344;28;20380;-66
2022/04/14 12:15:00;;;;;;;21.95;13.43;;;20.00;99.90;;;;;;5075609;28;20476;-67
2022/04/14 12:17:26;;;;;;;24.75;14.55;;;20.90;99.90;;;;;;5094131;28;20039;-65
2022/04/14 12:19:52;;;;;;;23.65;13.63;;;21.00;99.40;;;;;;5093964;28;20028;-66
2022/04/14 12:22:19;;;;;;;22.98;13.48;;;20.80;99.20;;;;;;5093664;28;20032;-67
2022/04/14 12:24:53;;;;;;;20.80;12.18;;;19.90;99.40;;;;;;5106414;22;20041;-67
2022/04/14 12:27:39;;;;;;;23.08;13.00;;;19.40;99.90;;;;;;5073755;28;20036;-67
2022/04/14 12:30:13;;;;;;;22.25;13.45;;;19.50;99.90;;;;;;5091696;28;20068;-66
2022/04/14 12:32:39;;;;;;;22.73;13.05;;;19.50;99.90;;;;;;5091974;28;20023;-66
2022/04/14 12:35:08;;;;;;;20.63;13.05;;;19.50;99.90;;;;;;5091452;28;20496;-66
2022/04/14 12:37:39;;;;;;;21.13;12.55;;;19.60;99.90;;;;;;5092103;28;20024;-66
2022/04/14 12:40:08;;;;;;;20.52;11.98;;;19.40;99.50;;;;;;5091659;28;20024;-67
2022/04/14 12:42:35;;;;;;;20.17;11.77;;;19.20;99.90;;;;;;5073358;28;20514;-65